createdAt,value
2023-01-24T00:00:31.805Z,6.50
2023-01-24T00:05:43.006Z,4.50
2023-01-24T00:08:09.882Z,6.33
2023-01-24T00:10:37.301Z,4.47
2023-01-24T00:13:03.920Z,4.47
2023-01-24T00:15:30.506Z,4.10
2023-01-24T00:17:57.048Z,4.83
2023-01-24T00:20:23.700Z,14.03
2023-01-24T00:22:50.269Z,4.50
2023-01-24T00:25:16.869Z,5.07
2023-01-24T00:27:43.521Z,4.77
2023-01-24T00:30:11.786Z,6.03
2023-01-24T00:32:38.365Z,4.97
2023-01-24T00:35:05.547Z,16.73
2023-01-24T00:40:16.743Z,8.30
2023-01-24T00:45:28.248Z,12.13
2023-01-24T00:47:54.831Z,8.70
2023-01-24T00:50:21.992Z,7.40
2023-01-24T00:52:48.710Z,7.10
2023-01-24T00:55:15.395Z,10.20
2023-01-24T00:57:42.870Z,5.93
2023-01-24T01:00:09.962Z,8.97
2023-01-24T01:02:36.603Z,7.30
2023-01-24T01:05:03.257Z,6.73
2023-01-24T01:07:33.430Z,7.77
2023-01-24T01:12:44.375Z,6.60
2023-01-24T01:17:55.550Z,7.30
2023-01-24T01:20:22.136Z,7.43
2023-01-24T01:22:48.797Z,5.40
2023-01-24T01:25:15.372Z,6.23
2023-01-24T01:30:26.477Z,5.50
2023-01-24T01:32:53.331Z,8.97
2023-01-24T01:35:20.128Z,7.30
2023-01-24T01:37:46.825Z,6.00
2023-01-24T01:42:57.893Z,6.00
2023-01-24T02:17:20.377Z,6.70
2023-01-24T02:19:47.012Z,6.03
2023-01-24T02:22:14.872Z,4.97
2023-01-24T02:24:43.641Z,6.47
2023-01-24T02:27:10.177Z,7.60
2023-01-24T02:29:36.803Z,6.07
2023-01-24T02:32:03.875Z,6.60
2023-01-24T02:34:30.514Z,7.60
2023-01-24T02:37:00.824Z,6.97
2023-01-24T02:39:29.470Z,8.27
2023-01-24T02:41:56.979Z,5.50
2023-01-24T02:44:30.774Z,5.97
2023-01-24T02:46:58.255Z,4.93
2023-01-24T02:49:24.846Z,6.30
2023-01-24T02:52:10.074Z,8.30
2023-01-24T02:54:36.845Z,9.30
2023-01-24T02:57:21.922Z,7.50
2023-01-24T02:59:48.530Z,7.87
2023-01-24T03:02:15.451Z,9.03
2023-01-24T03:07:26.105Z,8.27
2023-01-24T03:13:01.532Z,7.33
2023-01-24T03:15:46.880Z,6.93
2023-01-24T03:18:32.195Z,7.50
2023-01-24T03:21:17.347Z,6.23
2023-01-24T03:24:02.675Z,6.30
2023-01-24T03:29:51.442Z,8.37
2023-01-24T03:35:21.654Z,7.03
2023-01-24T03:38:07.471Z,7.93
2023-01-24T03:40:34.381Z,8.73
2023-01-24T03:43:01.166Z,8.60
2023-01-24T03:45:32.783Z,6.33
2023-01-24T03:48:00.348Z,10.40
2023-01-24T03:50:50.060Z,7.47
2023-01-24T03:53:17.314Z,7.73
2023-01-24T03:55:46.367Z,9.57
2023-01-24T03:58:13.397Z,9.43
2023-01-24T04:00:43.218Z,10.50
2023-01-24T04:03:26.933Z,9.50
2023-01-24T04:05:53.570Z,10.50
2023-01-24T04:08:20.291Z,9.23
2023-01-24T04:13:32.432Z,10.80
2023-01-24T04:15:59.835Z,11.57
2023-01-24T04:18:46.703Z,10.63
2023-01-24T04:21:13.866Z,10.80
2023-01-24T04:23:40.620Z,10.80
2023-01-24T04:26:07.270Z,17.30
2023-01-24T04:28:34.348Z,18.07
2023-01-24T04:31:03.250Z,14.80
2023-01-24T04:36:47.126Z,20.73
2023-01-24T04:39:13.780Z,11.60
2023-01-24T04:41:59.133Z,11.93
2023-01-24T04:44:25.856Z,13.70
2023-01-24T04:46:53.050Z,10.90
2023-01-24T04:49:19.821Z,12.20
2023-01-24T04:51:48.939Z,61.53
2023-01-24T04:54:21.164Z,20.67
2023-01-24T04:59:33.873Z,18.70
2023-01-24T05:02:00.526Z,22.77
2023-01-24T05:04:36.215Z,76.87
2023-01-24T05:09:55.320Z,12.13
2023-01-24T05:12:23.339Z,14.60
2023-01-24T05:14:49.996Z,11.47
2023-01-24T05:17:16.859Z,11.07
2023-01-24T05:22:28.044Z,12.50
2023-01-24T05:27:42.040Z,12.97
2023-01-24T05:33:01.337Z,13.13
2023-01-24T05:38:12.609Z,19.07
2023-01-24T05:43:24.910Z,13.30
2023-01-24T05:48:42.295Z,12.67
2023-01-24T05:51:10.529Z,11.70
2023-01-24T05:53:37.916Z,13.40
2023-01-24T05:56:06.017Z,11.70
2023-01-24T05:58:34.869Z,10.33
2023-01-24T06:01:10.559Z,11.00
2023-01-24T06:03:43.657Z,12.40
2023-01-24T06:06:11.586Z,15.10
2023-01-24T06:08:38.259Z,10.90
2023-01-24T06:13:50.043Z,13.90
2023-01-24T06:19:02.713Z,12.07
2023-01-24T06:21:36.072Z,9.97
2023-01-24T06:24:03.214Z,10.40
2023-01-24T06:26:41.962Z,13.03
2023-01-24T06:29:10.098Z,13.43
2023-01-24T06:31:43.085Z,12.47
2023-01-24T06:34:27.679Z,12.07
2023-01-24T06:36:54.778Z,14.03
2023-01-24T06:39:22.326Z,16.23
2023-01-24T06:41:49.709Z,15.53
2023-01-24T06:44:16.376Z,12.00
2023-01-24T06:46:43.313Z,14.73
2023-01-24T06:49:13.159Z,13.23
2023-01-24T06:54:24.397Z,14.13
2023-01-24T06:59:35.372Z,13.40
2023-01-24T07:02:02.240Z,14.63
2023-01-24T07:04:28.893Z,26.33
2023-01-24T07:06:55.493Z,15.83
2023-01-24T07:12:06.734Z,16.53
2023-01-24T07:17:17.692Z,15.00
2023-01-24T07:19:44.823Z,13.07
2023-01-24T07:22:14.759Z,12.90
2023-01-24T07:24:43.249Z,15.27
2023-01-24T07:27:12.495Z,15.63
2023-01-24T07:29:39.801Z,17.63
2023-01-24T07:32:06.546Z,15.27
2023-01-24T07:34:33.480Z,15.53
2023-01-24T07:37:00.225Z,17.07
2023-01-24T07:39:29.744Z,18.77
2023-01-24T07:44:41.847Z,17.57
2023-01-24T07:49:52.638Z,15.97
2023-01-24T07:52:19.224Z,15.10
2023-01-24T07:54:45.906Z,14.27
2023-01-24T07:57:12.674Z,15.40
2023-01-24T07:59:39.607Z,13.83
2023-01-24T08:02:06.456Z,14.67
2023-01-24T08:04:34.992Z,11.37
2023-01-24T08:07:21.142Z,11.83
2023-01-24T08:09:48.331Z,13.47
2023-01-24T08:12:15.134Z,12.40
2023-01-24T08:14:41.797Z,10.37
2023-01-24T08:17:08.495Z,8.67
2023-01-24T08:19:57.839Z,9.57
2023-01-24T08:22:23.182Z,10.87
2023-01-24T08:24:49.756Z,12.27
2023-01-24T08:27:16.383Z,13.53
2023-01-24T08:32:27.186Z,14.83
2023-01-24T08:37:37.786Z,16.20
2023-01-24T08:40:04.844Z,14.20
2023-01-24T08:42:31.442Z,15.27
2023-01-24T08:44:58.018Z,16.57
2023-01-24T08:47:24.631Z,16.03
2023-01-24T08:49:51.197Z,13.07
2023-01-24T08:52:17.854Z,14.40
2023-01-24T08:54:44.655Z,13.70
2023-01-24T08:57:13.886Z,13.30
2023-01-24T08:59:40.457Z,13.87
2023-01-24T09:02:07.286Z,12.43
2023-01-24T09:04:33.887Z,14.60
2023-01-24T09:07:00.603Z,11.40
2023-01-24T09:09:27.286Z,9.60
2023-01-24T09:11:54.381Z,11.80
2023-01-24T09:14:21.061Z,14.30
2023-01-24T09:16:47.899Z,13.53
2023-01-24T09:19:15.000Z,12.87
2023-01-24T09:21:41.793Z,12.00
2023-01-24T09:24:09.209Z,12.40
2023-01-24T09:26:36.041Z,15.60
2023-01-24T09:29:02.770Z,12.40
2023-01-24T09:31:29.757Z,12.37
2023-01-24T09:33:59.718Z,15.13
2023-01-24T09:36:27.326Z,12.90
2023-01-24T09:41:57.721Z,12.43
2023-01-24T09:44:38.487Z,9.50
2023-01-24T09:47:13.479Z,10.97
2023-01-24T09:52:28.118Z,10.30
2023-01-24T09:54:58.072Z,11.17
2023-01-24T09:57:28.750Z,14.17
2023-01-24T10:02:45.896Z,12.53
2023-01-24T10:05:16.024Z,14.30
2023-01-24T10:07:45.588Z,12.20
2023-01-24T10:13:18.417Z,11.63
2023-01-24T10:15:51.022Z,12.47
2023-01-24T10:18:40.743Z,10.57
2023-01-24T10:24:13.707Z,16.60
2023-01-24T10:26:43.906Z,18.17
2023-01-24T10:29:10.544Z,13.90
2023-01-24T10:31:41.415Z,16.07
2023-01-24T10:37:26.967Z,14.53
2023-01-24T10:42:37.756Z,14.20
2023-01-24T10:48:08.065Z,13.73
2023-01-24T10:53:31.259Z,15.50
2023-01-24T10:58:45.125Z,16.30
2023-01-24T11:04:20.063Z,19.03
2023-01-24T11:06:47.831Z,14.80
2023-01-24T11:09:15.726Z,13.83
2023-01-24T11:11:52.686Z,8.63
2023-01-24T11:14:35.832Z,14.63
2023-01-24T11:17:02.613Z,15.83
2023-01-24T11:19:33.002Z,14.67
2023-01-24T11:22:00.825Z,14.33
2023-01-24T11:24:28.302Z,17.53
2023-01-24T11:27:05.199Z,18.33
2023-01-24T11:32:32.849Z,15.33
2023-01-24T11:35:04.330Z,14.57
2023-01-24T11:37:31.165Z,14.23
2023-01-24T11:40:00.657Z,16.03
2023-01-24T11:45:33.557Z,15.67
2023-01-24T11:51:13.206Z,13.83
2023-01-24T11:53:46.817Z,17.60
2023-01-24T11:56:17.713Z,19.10
2023-01-24T11:58:53.937Z,16.57
2023-01-24T12:01:32.900Z,20.57
2023-01-24T12:06:50.591Z,23.83
2023-01-24T12:09:17.231Z,24.20
2023-01-24T12:12:02.683Z,19.97
2023-01-24T12:17:35.355Z,20.03
2023-01-24T12:22:58.980Z,18.67
2023-01-24T12:28:28.180Z,20.80
2023-01-24T12:30:55.131Z,23.50
2023-01-24T12:33:28.547Z,28.90
2023-01-24T12:35:56.800Z,25.90
2023-01-24T12:38:25.539Z,21.17
2023-01-24T12:40:57.430Z,31.00
2023-01-24T12:43:35.609Z,24.90
2023-01-24T12:46:08.264Z,26.63
2023-01-24T12:48:39.240Z,27.73
2023-01-24T12:51:25.264Z,26.93
2023-01-24T12:53:54.475Z,27.13
2023-01-24T12:56:22.135Z,21.80
2023-01-24T12:58:49.914Z,26.27
2023-01-24T13:01:19.557Z,27.97
2023-01-24T13:04:04.918Z,25.80
2023-01-24T13:06:47.032Z,23.77
2023-01-24T13:09:24.582Z,22.50
2023-01-24T13:11:51.813Z,23.80
2023-01-24T13:14:37.057Z,23.50
2023-01-24T13:17:22.681Z,21.73
2023-01-24T13:19:49.323Z,24.47
2023-01-24T13:22:15.900Z,22.20
2023-01-24T13:24:57.458Z,27.50
2023-01-24T13:27:42.064Z,21.67
2023-01-24T13:33:18.838Z,25.67
2023-01-24T13:35:51.787Z,24.77
2023-01-24T13:38:28.014Z,22.50
2023-01-24T13:43:58.458Z,24.37
2023-01-24T13:46:48.422Z,20.20
2023-01-24T13:49:18.891Z,23.70
2023-01-24T13:51:57.935Z,21.57
2023-01-24T13:54:41.079Z,21.53
2023-01-24T13:57:13.774Z,20.50
2023-01-24T13:59:41.019Z,20.07
2023-01-24T14:02:27.049Z,21.63
2023-01-24T14:04:53.670Z,18.80
2023-01-24T14:07:20.986Z,21.30
2023-01-24T14:12:32.886Z,21.70
2023-01-24T14:15:00.428Z,21.23
2023-01-24T14:17:28.081Z,22.03
2023-01-24T14:19:55.598Z,21.57
2023-01-24T14:22:23.103Z,22.60
2023-01-24T14:24:54.530Z,21.77
2023-01-24T14:30:21.800Z,24.77
2023-01-24T14:32:49.332Z,22.90
2023-01-24T14:35:26.681Z,23.87
2023-01-24T14:37:53.429Z,21.60
2023-01-24T14:40:25.947Z,18.90
2023-01-24T14:42:53.482Z,16.97
2023-01-24T14:45:22.503Z,19.57
2023-01-24T14:47:50.222Z,20.53
2023-01-24T14:53:22.414Z,23.87
2023-01-24T14:55:49.109Z,21.10
2023-01-24T14:58:25.798Z,19.53
2023-01-24T15:00:53.629Z,20.67
2023-01-24T15:03:21.714Z,22.07
2023-01-24T15:05:52.476Z,24.63
2023-01-24T15:08:19.209Z,24.13
2023-01-24T15:10:45.910Z,18.13
2023-01-24T15:16:04.555Z,21.83
2023-01-24T15:18:37.481Z,25.00
2023-01-24T15:21:04.147Z,22.27
2023-01-24T15:23:31.364Z,22.13
2023-01-24T15:25:58.091Z,18.50
2023-01-24T15:28:31.427Z,17.70
2023-01-24T15:30:58.828Z,25.90
2023-01-24T15:33:26.111Z,24.33
2023-01-24T15:35:52.901Z,22.03
2023-01-24T15:41:13.067Z,22.43
2023-01-24T15:46:55.320Z,24.43
2023-01-24T15:52:22.663Z,26.83
2023-01-24T15:57:41.556Z,30.43
2023-01-24T16:02:52.161Z,28.80
2023-01-24T16:08:08.896Z,22.63
2023-01-24T16:10:35.737Z,24.67
2023-01-24T16:13:02.408Z,28.20
2023-01-24T16:15:29.073Z,28.33
2023-01-24T16:17:55.835Z,147.97
2023-01-24T16:20:32.092Z,102.23
2023-01-24T16:25:42.921Z,48.73
2023-01-24T16:28:12.523Z,48.10
2023-01-24T16:30:39.168Z,42.97
2023-01-24T16:33:06.140Z,32.60
2023-01-24T16:38:17.479Z,26.73
2023-01-24T16:40:44.149Z,26.23
2023-01-24T16:43:17.267Z,26.13
2023-01-24T16:45:45.071Z,25.60
2023-01-24T16:48:11.653Z,25.57
2023-01-24T16:50:41.825Z,22.70
2023-01-24T16:55:57.602Z,18.40
2023-01-24T16:58:24.421Z,19.53
2023-01-24T17:00:51.059Z,18.30
2023-01-24T17:03:17.764Z,15.43
2023-01-24T17:05:44.553Z,15.87
2023-01-24T17:08:14.247Z,15.43
2023-01-24T17:10:41.398Z,25.97
2023-01-24T17:15:52.363Z,16.63
2023-01-24T17:21:04.787Z,20.33
2023-01-24T17:23:34.473Z,14.93
2023-01-24T17:26:04.896Z,16.90
2023-01-24T17:28:31.587Z,21.10
2023-01-24T17:30:58.281Z,36.43
2023-01-24T17:33:25.222Z,21.97
2023-01-24T17:35:51.802Z,20.67
2023-01-24T17:41:04.904Z,17.40
2023-01-24T17:46:16.334Z,21.37
2023-01-24T17:51:28.397Z,10.00
2023-01-24T17:53:55.200Z,14.47
2023-01-24T17:56:21.864Z,15.07
2023-01-24T17:58:48.487Z,14.63
2023-01-24T18:04:01.513Z,14.87
2023-01-24T18:06:28.485Z,9.20
2023-01-24T18:08:55.683Z,16.33
2023-01-24T18:11:22.374Z,15.40
2023-01-24T18:16:33.366Z,14.43
2023-01-24T18:19:00.214Z,14.03
2023-01-24T18:21:29.355Z,11.20
2023-01-24T18:23:56.885Z,12.70
2023-01-24T18:29:08.024Z,11.90
2023-01-24T18:34:19.784Z,14.90
2023-01-24T18:39:32.452Z,11.17
2023-01-24T18:42:01.396Z,11.57
2023-01-24T18:44:28.912Z,11.67
2023-01-24T18:46:55.555Z,12.97
2023-01-24T18:52:06.671Z,6.47
2023-01-24T18:54:33.284Z,14.67
2023-01-24T18:57:01.821Z,16.40
2023-01-24T18:59:29.266Z,16.03
2023-01-24T19:04:41.744Z,14.67
2023-01-24T19:09:53.188Z,13.40
2023-01-24T19:12:20.662Z,20.53
2023-01-24T19:14:47.992Z,16.97
2023-01-24T19:17:15.980Z,13.73
2023-01-24T19:19:44.385Z,17.43
2023-01-24T19:22:12.161Z,16.70
2023-01-24T19:24:38.887Z,15.03
2023-01-24T19:27:05.799Z,13.87
2023-01-24T19:29:32.605Z,15.00
2023-01-24T19:31:59.300Z,12.53
2023-01-24T19:37:11.376Z,11.37
2023-01-24T19:42:22.595Z,15.33
2023-01-24T19:47:35.006Z,15.03
2023-01-24T19:52:50.019Z,15.83
2023-01-24T19:55:17.709Z,15.63
2023-01-24T19:57:45.425Z,14.93
2023-01-24T20:00:15.377Z,16.30
2023-01-24T20:02:52.182Z,15.93
2023-01-24T20:05:19.321Z,16.77
2023-01-24T20:07:45.942Z,28.77
2023-01-24T20:10:14.214Z,34.40
2023-01-24T20:12:42.651Z,65.93
2023-01-24T20:15:10.019Z,21.67
2023-01-24T20:20:21.500Z,18.13
2023-01-24T20:22:48.482Z,20.13
2023-01-24T20:25:19.616Z,20.63
2023-01-24T20:27:46.811Z,22.70
2023-01-24T20:32:58.660Z,18.80
2023-01-24T20:38:11.836Z,18.73
2023-01-24T20:43:22.762Z,19.97
2023-01-24T20:48:34.013Z,20.87
2023-01-24T20:51:02.007Z,20.70
2023-01-24T20:53:29.925Z,25.33
2023-01-24T20:55:57.363Z,20.07
2023-01-24T20:58:24.132Z,16.93
2023-01-24T21:00:54.077Z,17.77
2023-01-24T21:03:26.595Z,13.20
2023-01-24T21:05:53.523Z,21.27
2023-01-24T21:08:20.783Z,19.40
2023-01-24T21:13:40.601Z,26.07
2023-01-24T21:16:09.241Z,21.93
2023-01-24T21:18:35.918Z,19.00
2023-01-24T21:21:03.147Z,18.67
2023-01-24T21:23:29.965Z,24.27
2023-01-24T21:25:57.134Z,20.37
2023-01-24T21:28:23.768Z,21.23
2023-01-24T21:31:04.162Z,16.17
2023-01-24T21:33:31.015Z,20.13
2023-01-24T21:36:04.657Z,20.20
2023-01-24T21:38:33.240Z,19.93
2023-01-24T21:44:03.356Z,20.47
2023-01-24T21:46:30.094Z,17.03
2023-01-24T21:49:07.285Z,22.13
2023-01-24T21:54:32.082Z,22.23
2023-01-24T21:57:30.078Z,13.17
2023-01-24T21:59:58.109Z,18.93
2023-01-24T22:05:09.800Z,23.63
2023-01-24T22:07:38.323Z,23.53
2023-01-24T22:10:06.334Z,20.87
2023-01-24T22:12:34.491Z,25.33
2023-01-24T22:17:50.304Z,18.83
2023-01-24T22:20:17.628Z,25.80
2023-01-24T22:22:48.459Z,25.47
2023-01-24T22:25:15.067Z,20.87
2023-01-24T22:27:42.154Z,22.80
2023-01-24T22:30:27.126Z,30.40
2023-01-24T22:32:56.215Z,24.33
2023-01-24T22:35:23.725Z,26.27
2023-01-24T22:37:53.748Z,25.90
2023-01-24T22:43:05.081Z,29.47
2023-01-24T22:48:15.961Z,23.30
2023-01-24T22:53:27.675Z,26.27
2023-01-24T22:58:44.053Z,23.00
2023-01-24T23:03:56.355Z,24.77
2023-01-24T23:09:07.123Z,30.23
2023-01-24T23:14:36.546Z,24.97
2023-01-24T23:20:06.136Z,24.60
2023-01-24T23:22:33.544Z,19.67
2023-01-24T23:25:00.810Z,21.57
2023-01-24T23:27:28.362Z,27.70
2023-01-24T23:32:46.259Z,25.80
2023-01-24T23:35:14.195Z,20.50
2023-01-24T23:37:41.218Z,18.47
2023-01-24T23:40:08.316Z,25.30
2023-01-24T23:42:34.982Z,19.20
2023-01-24T23:45:21.626Z,24.23
2023-01-24T23:50:32.221Z,23.23
2023-01-24T23:52:58.898Z,28.10
2023-01-24T23:55:25.949Z,20.00
2023-01-24T23:57:52.546Z,23.63
